Time;durP1;ratioP1;P1;durP2;ratioP2;P2;SDS_P1;SDS_P2;PMS_P1;PMS_P2;Temp;Humidity;BMP_temperature;BMP_pressure;BME280_temperature;BME280_humidity;BME280_pressure;Samples;Min_cycle;Max_cycle;Signal;HPM_P1;HPM_P2
2022/07/01 00:00:29;;;;;;;20.42;10.40;;;22.50;98.20;;;;;;5047705;28;20023;-47
2022/07/01 00:02:55;;;;;;;14.32;9.90;;;22.50;98.70;;;;;;5050887;28;20056;-48
2022/07/01 00:05:21;;;;;;;13.00;10.10;;;22.60;99.10;;;;;;5050262;28;20029;-50
2022/07/01 00:07:47;;;;;;;14.25;11.15;;;22.60;99.50;;;;;;5050865;28;20502;-49
2022/07/01 00:10:13;;;;;;;14.15;10.85;;;22.70;99.50;;;;;;5050876;28;20422;-47
2022/07/01 00:12:38;;;;;;;18.95;11.98;;;22.70;99.70;;;;;;5050739;28;20478;-47
2022/07/01 00:15:05;;;;;;;15.82;11.25;;;22.70;99.90;;;;;;5050157;28;20051;-47
2022/07/01 00:17:30;;;;;;;13.57;10.07;;;22.70;99.90;;;;;;5050654;28;20029;-47
2022/07/01 00:19:56;;;;;;;13.63;10.80;;;22.70;99.90;;;;;;5050697;28;20033;-47
2022/07/01 00:22:21;;;;;;;12.25;10.45;;;22.70;99.90;;;;;;5050744;28;20041;-48
2022/07/01 00:24:48;;;;;;;15.52;11.48;;;22.70;99.90;;;;;;5049929;28;20032;-47
2022/07/01 00:27:14;;;;;;;13.48;10.20;;;22.60;99.90;;;;;;5046788;28;20017;-48
2022/07/01 00:29:40;;;;;;;13.73;10.98;;;22.60;99.90;;;;;;5040109;28;20382;-46
2022/07/01 00:32:06;;;;;;;11.75;10.40;;;22.60;99.90;;;;;;5050692;28;20036;-46
2022/07/01 00:34:31;;;;;;;12.65;10.77;;;22.50;99.90;;;;;;5050206;28;20029;-47
2022/07/01 00:36:57;;;;;;;16.42;9.93;;;22.40;99.90;;;;;;5050616;28;20084;-47
2022/07/01 00:39:22;;;;;;;11.32;10.05;;;22.40;99.90;;;;;;5050382;28;20056;-47
2022/07/01 00:41:48;;;;;;;10.98;9.90;;;22.40;99.90;;;;;;5049928;28;20091;-47
2022/07/01 00:44:19;;;;;;;13.10;11.10;;;22.30;99.90;;;;;;5049514;28;20029;-49
2022/07/01 00:46:50;;;;;;;13.65;10.40;;;22.30;99.90;;;;;;5042962;28;20025;-47
2022/07/01 00:49:16;;;;;;;13.45;11.00;;;22.20;99.90;;;;;;5044595;28;20604;-47
2022/07/01 00:51:41;;;;;;;11.70;9.95;;;22.20;99.90;;;;;;5049958;28;20502;-48
2022/07/01 00:54:08;;;;;;;13.90;10.48;;;22.10;99.90;;;;;;5049322;28;20044;-48
2022/07/01 00:56:34;;;;;;;15.90;11.57;;;22.10;99.90;;;;;;5050021;28;20032;-49
2022/07/01 00:58:59;;;;;;;15.52;10.90;;;22.10;99.90;;;;;;5049919;28;20248;-47
2022/07/01 01:01:25;;;;;;;14.70;10.73;;;22.20;99.90;;;;;;5049793;28;20025;-46
2022/07/01 01:03:50;;;;;;;12.18;10.20;;;22.20;99.90;;;;;;5050012;28;20037;-47
2022/07/01 01:06:16;;;;;;;14.30;9.30;;;22.20;99.90;;;;;;5049491;28;20037;-48
2022/07/01 01:08:42;;;;;;;16.05;9.98;;;22.10;99.90;;;;;;5042620;28;20427;-47
2022/07/01 01:11:08;;;;;;;11.57;8.50;;;22.10;99.90;;;;;;5041413;28;20584;-50
2022/07/01 01:13:34;;;;;;;12.48;8.15;;;22.10;99.90;;;;;;5049286;28;20041;-47
2022/07/01 01:15:59;;;;;;;10.15;7.65;;;22.10;99.90;;;;;;5046875;28;20044;-47
2022/07/01 01:18:25;;;;;;;11.70;7.47;;;22.00;99.90;;;;;;5041363;28;20021;-48
2022/07/01 01:20:52;;;;;;;10.63;7.55;;;21.90;99.90;;;;;;5049488;28;20478;-48
2022/07/01 01:23:18;;;;;;;11.05;7.47;;;21.90;99.90;;;;;;5049342;28;20032;-47
2022/07/01 01:25:46;;;;;;;9.15;6.53;;;21.80;99.90;;;;;;5048754;28;20043;-47
2022/07/01 01:28:12;;;;;;;12.15;6.15;;;21.60;99.90;;;;;;5049002;28;20548;-47
2022/07/01 01:30:37;;;;;;;22.08;6.65;;;21.60;99.90;;;;;;5049168;28;20033;-47
2022/07/01 01:33:03;;;;;;;13.10;6.38;;;21.60;99.90;;;;;;5049277;28;20032;-47
2022/07/01 01:35:28;;;;;;;10.55;6.25;;;21.50;99.90;;;;;;5048589;28;20031;-47
2022/07/01 01:37:54;;;;;;;11.85;5.60;;;21.40;99.90;;;;;;5049216;28;20536;-48
2022/07/01 01:40:20;;;;;;;9.05;6.00;;;21.30;99.90;;;;;;5049169;28;20025;-47
2022/07/01 01:42:46;;;;;;;8.63;5.85;;;21.20;99.90;;;;;;5047590;28;20482;-50
2022/07/01 01:45:12;;;;;;;9.50;6.72;;;21.00;99.90;;;;;;5048856;28;20052;-50
2022/07/01 01:47:38;;;;;;;11.75;7.32;;;21.00;99.90;;;;;;5039688;28;20411;-47
2022/07/01 01:50:10;;;;;;;11.23;6.78;;;20.80;99.90;;;;;;5049256;28;20025;-47
2022/07/01 01:52:38;;;;;;;12.63;7.95;;;20.80;99.90;;;;;;5049007;28;20040;-47
2022/07/01 01:55:04;;;;;;;11.65;6.80;;;20.70;99.90;;;;;;5048855;28;20096;-47
2022/07/01 01:57:30;;;;;;;9.02;7.38;;;20.60;99.90;;;;;;5048770;28;20091;-47
2022/07/01 01:59:55;;;;;;;9.85;7.00;;;20.60;99.90;;;;;;5047576;28;20056;-47
2022/07/01 02:02:21;;;;;;;10.00;6.78;;;20.60;99.90;;;;;;5048414;28;20040;-48
2022/07/01 02:04:46;;;;;;;7.75;6.43;;;20.50;99.90;;;;;;5048375;28;20029;-47
2022/07/01 02:07:12;;;;;;;13.68;7.57;;;20.50;99.90;;;;;;5048654;28;20432;-47
2022/07/01 02:09:37;;;;;;;8.93;6.20;;;20.40;99.90;;;;;;5048635;28;20098;-48
2022/07/01 02:12:04;;;;;;;8.20;6.40;;;20.40;99.90;;;;;;5048181;28;20064;-47
2022/07/01 02:14:29;;;;;;;11.23;7.88;;;20.50;99.90;;;;;;5047866;28;20040;-47
2022/07/01 02:16:55;;;;;;;10.27;7.88;;;20.50;99.90;;;;;;5043949;28;20471;-47
2022/07/01 02:19:20;;;;;;;9.63;7.80;;;20.50;99.90;;;;;;5042840;28;20053;-47
2022/07/01 02:21:46;;;;;;;15.52;8.68;;;20.50;99.90;;;;;;5048745;28;20067;-47
2022/07/01 02:24:11;;;;;;;12.30;8.38;;;20.40;99.90;;;;;;5048148;28;20500;-47
2022/07/01 02:26:37;;;;;;;12.57;7.25;;;20.30;99.90;;;;;;5048641;28;20604;-50
2022/07/01 02:29:03;;;;;;;12.40;9.45;;;20.30;99.90;;;;;;5048293;28;20025;-47
2022/07/01 02:31:28;;;;;;;14.68;8.52;;;20.30;99.90;;;;;;5047204;28;20382;-48
2022/07/01 02:33:54;;;;;;;14.45;10.52;;;20.30;99.90;;;;;;5048162;28;20062;-47
2022/07/01 02:36:19;;;;;;;13.35;11.25;;;20.30;99.90;;;;;;5048052;28;20267;-48
2022/07/01 02:38:45;;;;;;;13.82;10.90;;;20.30;99.90;;;;;;5048381;28;20028;-47
2022/07/01 02:41:10;;;;;;;14.20;11.00;;;20.20;99.90;;;;;;5048318;28;20032;-47
2022/07/01 02:43:36;;;;;;;20.10;12.02;;;20.10;99.90;;;;;;5047996;28;20112;-49
2022/07/01 02:46:01;;;;;;;16.23;12.98;;;20.00;99.90;;;;;;5046851;28;20190;-48
2022/07/01 02:48:27;;;;;;;22.38;12.52;;;19.90;99.90;;;;;;5040183;28;20151;-49
2022/07/01 02:50:53;;;;;;;13.40;11.02;;;19.80;99.90;;;;;;5048543;28;20043;-48
2022/07/01 02:53:18;;;;;;;15.43;12.60;;;19.70;99.90;;;;;;5048444;28;20542;-48
2022/07/01 02:55:44;;;;;;;16.60;13.48;;;19.60;99.90;;;;;;5047910;28;20382;-47
2022/07/01 02:58:09;;;;;;;21.42;13.18;;;19.40;99.90;;;;;;5048029;28;20110;-47
2022/07/01 03:00:35;;;;;;;20.88;14.15;;;19.30;99.90;;;;;;5048286;28;20056;-47
2022/07/01 03:03:00;;;;;;;17.35;15.23;;;19.20;99.90;;;;;;5048231;28;20394;-48
2022/07/01 03:05:26;;;;;;;17.23;14.13;;;19.00;99.90;;;;;;5047533;28;20017;-49
2022/07/01 03:07:51;;;;;;;22.65;15.57;;;19.00;99.90;;;;;;5048029;28;20254;-50
2022/07/01 03:10:17;;;;;;;18.67;15.75;;;18.90;99.90;;;;;;5048444;28;20033;-47
2022/07/01 03:12:42;;;;;;;22.90;15.20;;;18.80;99.90;;;;;;5047966;28;20068;-47
2022/07/01 03:15:13;;;;;;;16.30;14.65;;;18.60;99.90;;;;;;5051139;28;20061;-49
2022/07/01 03:17:40;;;;;;;17.25;15.27;;;18.50;99.90;;;;;;5040995;28;20025;-47
2022/07/01 03:20:08;;;;;;;16.13;14.10;;;18.50;99.90;;;;;;5052203;28;20103;-47
2022/07/01 03:22:35;;;;;;;16.33;14.63;;;18.40;99.90;;;;;;5051756;28;20494;-49
2022/07/01 03:25:02;;;;;;;16.50;13.95;;;18.40;99.90;;;;;;5051061;28;20479;-47
2022/07/01 03:27:28;;;;;;;13.38;11.65;;;18.40;99.90;;;;;;5048398;28;20017;-47
2022/07/01 03:29:54;;;;;;;11.38;10.15;;;18.30;99.90;;;;;;5043301;28;20423;-48
2022/07/01 03:32:19;;;;;;;7.97;7.18;;;18.30;99.90;;;;;;5051405;28;20437;-48
2022/07/01 03:34:48;;;;;;;6.93;6.10;;;18.30;99.90;;;;;;5050861;28;20036;-47
2022/07/01 03:37:15;;;;;;;6.40;5.05;;;18.20;99.90;;;;;;5051340;28;20025;-47
2022/07/01 03:39:41;;;;;;;6.22;5.07;;;18.10;99.90;;;;;;5051145;28;20024;-50
2022/07/01 03:42:10;;;;;;;6.85;4.88;;;18.00;99.90;;;;;;5051098;28;20025;-47
2022/07/01 03:44:37;;;;;;;5.72;5.05;;;17.90;99.90;;;;;;5049424;28;20028;-48
2022/07/01 03:47:05;;;;;;;5.30;4.57;;;17.90;99.90;;;;;;5051185;28;20025;-47
2022/07/01 03:49:34;;;;;;;5.90;5.25;;;17.90;99.90;;;;;;5051096;28;20039;-47
2022/07/01 03:52:01;;;;;;;7.97;6.20;;;17.90;99.90;;;;;;5051445;28;20025;-48
2022/07/01 03:54:29;;;;;;;12.15;8.25;;;17.80;99.90;;;;;;5048763;28;20033;-48
2022/07/01 03:57:02;;;;;;;18.83;13.35;;;17.80;99.90;;;;;;5031103;28;20029;-48
2022/07/01 03:59:28;;;;;;;18.67;13.50;;;17.70;99.90;;;;;;5031253;28;20402;-48
2022/07/01 04:01:54;;;;;;;22.40;17.80;;;17.60;99.90;;;;;;5031450;28;20021;-49
2022/07/01 04:04:20;;;;;;;21.17;17.65;;;17.60;99.90;;;;;;5030559;28;20030;-49
2022/07/01 04:06:46;;;;;;;28.08;20.95;;;17.50;99.90;;;;;;5031622;28;20025;-47
2022/07/01 04:09:14;;;;;;;26.10;20.35;;;17.50;99.90;;;;;;5031482;28;20257;-48
2022/07/01 04:11:40;;;;;;;23.08;18.77;;;17.40;99.90;;;;;;5031141;28;20283;-47
2022/07/01 04:14:05;;;;;;;23.13;19.48;;;17.30;99.90;;;;;;5030369;28;20053;-47
2022/07/01 04:16:32;;;;;;;27.08;20.58;;;17.30;99.90;;;;;;5031399;28;20049;-47
2022/07/01 04:18:58;;;;;;;21.70;17.92;;;17.20;99.90;;;;;;5038700;28;20029;-50
2022/07/01 04:24:08;;;;;;;15.63;12.98;;;17.10;99.90;;;;;;5049918;28;20310;-46
2022/07/01 04:26:34;;;;;;;16.20;12.25;;;17.10;99.90;;;;;;5050992;28;20021;-46
2022/07/01 04:29:00;;;;;;;16.15;12.18;;;17.00;99.90;;;;;;5038318;28;20021;-47
2022/07/01 04:31:26;;;;;;;15.23;11.27;;;17.00;99.90;;;;;;5046707;28;20036;-47
2022/07/01 04:33:51;;;;;;;14.88;11.20;;;17.00;99.90;;;;;;5050055;28;20096;-48
2022/07/01 04:36:17;;;;;;;11.73;9.27;;;17.00;99.90;;;;;;5049821;28;20474;-49
2022/07/01 04:38:43;;;;;;;18.65;10.27;;;17.00;99.90;;;;;;5050301;28;20032;-46
2022/07/01 04:43:53;;;;;;;9.18;7.95;;;17.00;99.90;;;;;;5041517;28;20218;-51
2022/07/01 04:46:18;;;;;;;13.13;8.57;;;17.00;99.90;;;;;;5049811;28;20029;-48
2022/07/01 04:48:44;;;;;;;8.40;7.05;;;16.90;99.90;;;;;;5050436;28;20131;-47
2022/07/01 04:51:09;;;;;;;10.93;7.35;;;16.90;99.90;;;;;;5050085;28;20464;-47
2022/07/01 04:53:35;;;;;;;7.38;6.30;;;16.80;99.90;;;;;;5049833;28;20044;-46
2022/07/01 04:56:01;;;;;;;7.13;6.35;;;16.80;99.90;;;;;;5049147;28;20259;-46
2022/07/01 04:58:26;;;;;;;7.85;6.20;;;16.80;99.90;;;;;;5049504;28;20539;-47
2022/07/01 05:00:52;;;;;;;7.10;5.78;;;16.80;99.90;;;;;;5050341;28;20029;-47
2022/07/01 05:03:18;;;;;;;10.13;6.75;;;16.80;99.90;;;;;;5049741;28;20029;-47
2022/07/01 05:05:44;;;;;;;11.45;7.30;;;16.70;99.90;;;;;;5043028;28;20029;-47
2022/07/01 05:08:10;;;;;;;10.35;8.40;;;16.70;99.90;;;;;;5041428;28;20052;-50
2022/07/01 05:10:35;;;;;;;10.27;8.15;;;16.70;99.90;;;;;;5049502;28;20198;-47
2022/07/01 05:13:01;;;;;;;10.25;8.77;;;16.70;99.90;;;;;;5049558;28;20029;-50
2022/07/01 05:15:26;;;;;;;11.68;9.57;;;16.70;99.90;;;;;;5049315;28;20017;-49
2022/07/01 05:23:20;;;;;;;11.73;9.63;;;16.60;99.90;;;;;;5049661;28;20036;-47
2022/07/01 05:25:46;;;;;;;12.18;9.70;;;16.60;99.90;;;;;;5048893;28;20020;-49
2022/07/01 05:28:11;;;;;;;10.18;9.05;;;16.60;99.90;;;;;;5049672;28;20382;-47
2022/07/01 05:30:37;;;;;;;8.60;7.75;;;16.60;99.90;;;;;;5049296;28;20215;-47
2022/07/01 05:33:02;;;;;;;9.10;8.05;;;16.60;99.90;;;;;;5049433;28;20025;-50
2022/07/01 05:35:28;;;;;;;14.10;7.53;;;16.50;99.90;;;;;;5042706;28;20099;-46
2022/07/01 05:37:53;;;;;;;7.47;6.78;;;16.60;99.90;;;;;;5040895;28;20025;-46
2022/07/01 05:40:19;;;;;;;7.55;6.38;;;16.50;99.90;;;;;;5049416;28;20028;-47
2022/07/01 05:42:44;;;;;;;7.70;6.07;;;16.50;99.90;;;;;;5041150;28;20467;-47
2022/07/01 05:45:10;;;;;;;8.13;6.15;;;16.50;99.90;;;;;;5040217;28;20513;-48
2022/07/01 05:47:35;;;;;;;6.80;6.20;;;16.50;99.90;;;;;;5049571;28;20041;-46
2022/07/01 05:50:01;;;;;;;6.65;5.95;;;16.50;99.90;;;;;;5049487;28;20029;-47
2022/07/01 05:52:26;;;;;;;7.70;5.35;;;16.50;99.90;;;;;;5049836;28;20029;-47
2022/07/01 05:54:52;;;;;;;6.55;5.95;;;16.40;99.90;;;;;;5047366;28;20039;-47
2022/07/01 05:57:17;;;;;;;6.38;5.78;;;16.40;99.90;;;;;;5039764;28;20013;-48
2022/07/01 05:59:43;;;;;;;6.97;5.43;;;16.40;99.90;;;;;;5048722;28;20021;-48
2022/07/01 06:02:08;;;;;;;6.70;4.88;;;16.40;99.90;;;;;;5049075;28;20024;-48
2022/07/01 06:04:34;;;;;;;4.40;3.42;;;16.40;99.90;;;;;;5042385;28;20026;-47
2022/07/01 06:07:00;;;;;;;3.72;3.22;;;16.30;99.90;;;;;;5040763;28;20095;-50
2022/07/01 06:09:25;;;;;;;5.45;3.75;;;16.30;99.90;;;;;;5047756;28;20043;-48
2022/07/01 06:11:51;;;;;;;6.28;3.35;;;16.30;99.90;;;;;;5039230;28;20100;-47
2022/07/01 06:14:16;;;;;;;4.35;3.08;;;16.30;99.90;;;;;;5047555;28;20040;-48
2022/07/01 06:16:42;;;;;;;8.27;4.38;;;16.30;99.90;;;;;;5048417;28;20021;-47
2022/07/01 06:19:07;;;;;;;7.03;3.22;;;16.30;99.90;;;;;;5048390;28;20074;-47
2022/07/01 06:21:33;;;;;;;3.85;3.05;;;16.40;99.90;;;;;;5048252;28;20059;-48
2022/07/01 06:23:58;;;;;;;3.63;2.70;;;16.40;99.90;;;;;;5029720;28;20522;-48
2022/07/01 06:26:24;;;;;;;4.38;2.85;;;16.40;99.90;;;;;;5010037;28;20022;-47
2022/07/01 06:28:50;;;;;;;2.55;2.35;;;16.40;99.90;;;;;;5014986;28;20473;-47
2022/07/01 06:31:16;;;;;;;3.35;2.22;;;16.40;99.90;;;;;;5039887;28;20035;-47
2022/07/01 06:33:41;;;;;;;3.70;2.78;;;16.40;99.90;;;;;;5025224;28;20100;-47
2022/07/01 06:36:07;;;;;;;5.70;3.05;;;16.40;99.90;;;;;;5025854;28;20483;-47
2022/07/01 06:38:32;;;;;;;2.60;2.40;;;16.50;99.90;;;;;;5035961;28;20105;-47
2022/07/01 06:43:43;;;;;;;20.70;15.18;;;16.60;99.90;;;;;;5007900;28;20455;-47
2022/07/01 06:46:09;;;;;;;8.18;5.53;;;16.70;99.90;;;;;;5007334;28;20030;-46
2022/07/01 06:48:35;;;;;;;5.45;2.88;;;16.60;99.90;;;;;;5011262;28;20052;-47
2022/07/01 06:51:01;;;;;;;3.80;2.70;;;16.60;99.90;;;;;;5030417;28;20550;-47
2022/07/01 06:53:27;;;;;;;4.82;2.38;;;16.60;99.90;;;;;;5041117;28;20108;-47
2022/07/01 06:55:52;;;;;;;4.15;2.88;;;16.70;99.90;;;;;;5050407;28;20029;-48
2022/07/01 06:58:18;;;;;;;4.35;2.55;;;16.80;99.90;;;;;;5050130;28;20382;-49
2022/07/01 07:00:43;;;;;;;3.05;2.47;;;16.80;99.90;;;;;;5051205;28;20028;-47
2022/07/01 07:03:09;;;;;;;3.00;2.72;;;16.80;99.90;;;;;;5051343;28;20017;-47
2022/07/01 07:05:34;;;;;;;4.38;2.53;;;16.80;99.90;;;;;;5050458;28;20041;-47
2022/07/01 07:08:00;;;;;;;3.97;2.40;;;16.80;99.90;;;;;;5049516;28;20025;-47
2022/07/01 07:10:25;;;;;;;2.85;2.17;;;16.90;99.90;;;;;;5042298;28;20021;-48
2022/07/01 07:12:51;;;;;;;7.45;2.70;;;16.90;99.90;;;;;;5031232;28;20045;-47
2022/07/01 07:15:16;;;;;;;5.10;3.20;;;16.80;99.90;;;;;;5030063;28;20021;-47
2022/07/01 07:17:42;;;;;;;4.70;2.83;;;16.90;99.90;;;;;;5041122;28;20030;-50
2022/07/01 07:20:08;;;;;;;5.32;2.70;;;16.90;99.90;;;;;;5050924;28;20025;-48
2022/07/01 07:22:34;;;;;;;6.22;2.60;;;16.90;99.90;;;;;;5019624;28;20533;-47
2022/07/01 07:25:00;;;;;;;2.80;2.47;;;16.90;99.90;;;;;;5021027;28;20026;-47
2022/07/01 07:27:25;;;;;;;4.75;2.63;;;16.80;99.90;;;;;;5013861;28;20076;-47
2022/07/01 07:29:51;;;;;;;3.03;2.40;;;16.80;99.90;;;;;;5010868;28;20080;-49
2022/07/01 07:32:16;;;;;;;3.35;2.30;;;16.80;99.90;;;;;;5011304;28;20079;-47
2022/07/01 07:34:42;;;;;;;5.63;2.20;;;17.00;99.90;;;;;;5017032;28;20534;-47
2022/07/01 07:37:07;;;;;;;4.15;2.20;;;16.90;99.90;;;;;;5024630;28;20359;-48
2022/07/01 07:39:33;;;;;;;2.78;2.08;;;17.00;99.90;;;;;;5030212;28;20026;-46
2022/07/01 07:41:59;;;;;;;4.07;2.30;;;17.00;99.90;;;;;;5029597;28;20543;-46
2022/07/01 07:44:25;;;;;;;3.50;2.28;;;17.00;99.90;;;;;;5029655;28;20022;-46
2022/07/01 07:46:50;;;;;;;4.95;2.47;;;16.80;99.90;;;;;;5038527;28;20486;-46
2022/07/01 07:49:16;;;;;;;2.55;2.03;;;16.80;99.90;;;;;;5024591;28;20021;-47
2022/07/01 07:51:42;;;;;;;4.90;2.45;;;16.90;99.90;;;;;;5025253;28;20244;-47
2022/07/01 07:54:07;;;;;;;2.10;1.83;;;16.80;99.90;;;;;;5018536;28;20238;-47
2022/07/01 07:56:33;;;;;;;4.22;2.30;;;16.80;99.90;;;;;;5020957;28;20018;-46
2022/07/01 07:58:58;;;;;;;2.30;2.00;;;16.90;99.90;;;;;;5026433;28;20626;-46
2022/07/01 08:01:24;;;;;;;2.72;2.30;;;16.90;99.90;;;;;;5030813;28;20370;-46
2022/07/01 08:03:49;;;;;;;2.95;2.03;;;17.00;99.90;;;;;;5030144;28;20087;-47
2022/07/01 08:06:14;;;;;;;2.40;2.17;;;16.90;99.90;;;;;;5027314;28;20029;-47
2022/07/01 08:08:40;;;;;;;3.53;2.35;;;16.90;99.90;;;;;;5029614;28;20394;-49
2022/07/01 08:11:06;;;;;;;6.03;2.90;;;16.90;99.90;;;;;;5030560;28;20035;-48
2022/07/01 08:13:31;;;;;;;4.38;3.40;;;16.90;99.90;;;;;;5026443;28;20041;-47
2022/07/01 08:15:57;;;;;;;6.97;4.10;;;16.80;99.90;;;;;;5022289;28;20426;-47
2022/07/01 08:18:23;;;;;;;5.50;4.15;;;16.60;99.90;;;;;;5013773;28;20010;-47
2022/07/01 08:20:52;;;;;;;5.97;4.43;;;16.60;99.90;;;;;;5021685;28;20024;-48
2022/07/01 08:23:18;;;;;;;6.63;5.00;;;16.60;99.90;;;;;;5027053;28;20084;-47
2022/07/01 08:25:44;;;;;;;6.80;5.72;;;16.50;99.90;;;;;;5023605;28;20076;-48
2022/07/01 08:28:09;;;;;;;9.10;6.00;;;16.40;99.90;;;;;;5019920;28;20454;-47
2022/07/01 08:30:35;;;;;;;10.20;6.75;;;16.40;99.90;;;;;;5018462;28;20018;-50
2022/07/01 08:33:01;;;;;;;8.57;6.53;;;16.30;99.90;;;;;;5018670;28;20079;-47
2022/07/01 08:35:26;;;;;;;8.93;7.07;;;16.30;99.90;;;;;;5018829;28;20045;-47
2022/07/01 08:37:52;;;;;;;8.43;6.80;;;16.30;99.90;;;;;;5026230;28;20513;-47
2022/07/01 08:40:18;;;;;;;11.90;8.20;;;16.40;99.90;;;;;;5025075;28;20395;-47
2022/07/01 08:42:44;;;;;;;11.65;8.05;;;16.30;99.90;;;;;;5028994;28;20438;-48
2022/07/01 08:45:09;;;;;;;12.77;8.85;;;16.30;99.90;;;;;;5018581;28;20021;-47
2022/07/01 08:47:52;;;;;;;14.48;8.15;;;16.20;99.90;;;;;;5010937;28;20080;-48
2022/07/01 08:50:17;;;;;;;10.18;8.40;;;16.20;99.90;;;;;;5016161;28;20029;-48
2022/07/01 08:52:43;;;;;;;11.15;7.70;;;16.10;99.90;;;;;;5020645;28;20014;-48
2022/07/01 08:55:08;;;;;;;10.02;8.38;;;16.10;99.90;;;;;;5018872;28;20028;-48
2022/07/01 08:57:34;;;;;;;13.13;8.65;;;16.10;99.90;;;;;;5021748;28;20021;-48
2022/07/01 09:00:07;;;;;;;9.82;8.07;;;16.00;99.90;;;;;;5018937;28;20026;-50
2022/07/01 09:02:56;;;;;;;12.93;8.70;;;16.00;99.90;;;;;;5019252;28;20045;-48
2022/07/01 09:05:23;;;;;;;14.85;9.90;;;16.10;99.90;;;;;;5020986;28;20375;-48
2022/07/01 09:07:55;;;;;;;11.75;8.80;;;16.00;99.90;;;;;;5026578;28;20067;-48
2022/07/01 09:10:21;;;;;;;12.98;8.88;;;15.80;99.90;;;;;;5023282;28;20029;-48
2022/07/01 09:12:49;;;;;;;13.38;10.45;;;15.90;99.90;;;;;;5019422;28;20446;-49
2022/07/01 09:15:27;;;;;;;11.02;8.77;;;15.80;99.90;;;;;;5024584;28;20075;-49
2022/07/01 09:17:54;;;;;;;16.60;9.82;;;15.80;99.90;;;;;;5023542;28;20018;-46
2022/07/01 09:20:30;;;;;;;16.20;10.50;;;15.80;99.90;;;;;;5020228;28;20018;-47
2022/07/01 09:23:13;;;;;;;13.75;9.80;;;15.90;99.90;;;;;;5051021;28;20033;-47
2022/07/01 09:25:47;;;;;;;13.98;9.10;;;15.90;99.90;;;;;;5028123;28;20017;-48
2022/07/01 09:28:22;;;;;;;12.43;9.63;;;15.90;99.90;;;;;;5021393;28;20036;-48
2022/07/01 09:30:50;;;;;;;14.77;9.88;;;15.90;99.90;;;;;;5021244;28;20383;-50
2022/07/01 09:33:22;;;;;;;13.77;10.35;;;15.90;99.90;;;;;;5021637;28;20039;-49
2022/07/01 09:35:49;;;;;;;16.13;11.27;;;16.00;99.90;;;;;;5019129;28;20057;-48
2022/07/01 09:38:16;;;;;;;16.00;10.77;;;16.00;99.90;;;;;;5019203;28;20456;-51
2022/07/01 09:40:56;;;;;;;19.67;13.70;;;16.00;99.90;;;;;;5020238;28;20097;-47
2022/07/01 09:43:25;;;;;;;17.17;10.95;;;16.00;99.90;;;;;;5021640;28;20025;-47
2022/07/01 09:46:01;;;;;;;15.95;11.40;;;16.00;99.90;;;;;;5020877;28;20101;-47
2022/07/01 09:48:32;;;;;;;15.25;10.73;;;16.00;99.90;;;;;;5021171;28;20030;-48
2022/07/01 09:51:00;;;;;;;13.38;11.05;;;16.00;99.90;;;;;;5021488;28;20500;-48
2022/07/01 09:53:25;;;;;;;15.48;12.48;;;16.00;99.90;;;;;;5021838;28;20379;-50
2022/07/01 09:55:52;;;;;;;17.33;12.57;;;16.10;99.90;;;;;;5025145;28;20029;-50
2022/07/01 09:58:18;;;;;;;14.88;11.82;;;16.00;99.90;;;;;;5015911;28;20340;-47
2022/07/01 10:00:47;;;;;;;13.65;11.25;;;16.00;99.90;;;;;;5019557;28;20037;-47
2022/07/01 10:03:13;;;;;;;12.57;11.05;;;15.90;99.90;;;;;;5018859;28;20080;-47
2022/07/01 10:05:47;;;;;;;12.63;10.38;;;16.00;99.90;;;;;;5014341;28;20029;-47
2022/07/01 10:08:31;;;;;;;12.43;10.18;;;16.10;99.90;;;;;;5020375;28;20021;-49
2022/07/01 10:11:37;;;;;;;14.07;10.15;;;16.10;99.90;;;;;;5051516;28;20032;-51
2022/07/01 10:14:07;;;;;;;13.80;11.95;;;16.10;99.90;;;;;;5018630;28;20376;-49
2022/07/01 10:16:34;;;;;;;15.75;12.02;;;16.20;99.90;;;;;;5050870;28;20121;-49
2022/07/01 10:19:26;;;;;;;12.07;10.77;;;16.10;99.90;;;;;;5019135;28;20498;-49
2022/07/01 10:21:58;;;;;;;16.60;12.70;;;16.10;99.90;;;;;;5019685;28;20026;-54
2022/07/01 10:24:25;;;;;;;18.13;13.98;;;16.20;99.90;;;;;;5023046;28;20104;-47
2022/07/01 10:26:51;;;;;;;15.38;13.73;;;16.20;99.90;;;;;;5034027;28;20441;-47
2022/07/01 10:29:27;;;;;;;17.40;14.07;;;16.10;99.90;;;;;;5021456;28;20502;-49
2022/07/01 10:31:53;;;;;;;20.23;16.98;;;16.10;99.90;;;;;;5020309;28;20028;-49
2022/07/01 10:34:19;;;;;;;17.60;15.05;;;16.30;99.90;;;;;;5026052;28;20244;-48
2022/07/01 10:36:59;;;;;;;18.90;16.30;;;16.30;99.90;;;;;;5029559;28;20133;-49
2022/07/01 10:39:27;;;;;;;14.23;12.77;;;16.40;99.90;;;;;;5018247;28;20095;-48
2022/07/01 10:41:52;;;;;;;16.88;14.13;;;16.40;99.90;;;;;;5019922;28;20021;-48
2022/07/01 10:44:19;;;;;;;16.45;14.63;;;16.50;99.90;;;;;;5018642;28;20036;-48
2022/07/01 10:46:58;;;;;;;17.05;13.82;;;16.60;99.90;;;;;;5018133;28;20057;-47
2022/07/01 10:49:35;;;;;;;14.68;13.18;;;16.70;99.90;;;;;;5018294;28;20058;-50
2022/07/01 10:52:15;;;;;;;14.40;12.20;;;16.70;99.90;;;;;;5020664;28;20386;-48
2022/07/01 10:54:41;;;;;;;18.33;14.20;;;16.60;99.90;;;;;;5020017;28;20022;-48
2022/07/01 10:57:20;;;;;;;15.55;13.90;;;16.60;99.90;;;;;;5024662;28;20141;-49
2022/07/01 10:59:47;;;;;;;16.55;14.07;;;16.60;99.90;;;;;;5028466;28;20101;-48
2022/07/01 11:02:15;;;;;;;16.02;13.98;;;16.60;99.90;;;;;;5019723;28;20491;-47
2022/07/01 11:04:41;;;;;;;19.17;14.77;;;16.50;99.90;;;;;;5017602;28;20311;-47
2022/07/01 11:07:07;;;;;;;17.05;14.45;;;16.50;99.90;;;;;;5025918;28;20065;-46
2022/07/01 11:09:33;;;;;;;14.43;12.93;;;16.50;99.90;;;;;;5015122;28;20469;-47
2022/07/01 11:11:59;;;;;;;14.90;12.50;;;16.50;99.90;;;;;;5016927;28;20104;-47
2022/07/01 11:14:25;;;;;;;19.42;15.38;;;16.60;99.90;;;;;;5017394;28;20038;-47
2022/07/01 11:16:51;;;;;;;15.32;13.30;;;16.60;99.90;;;;;;5015927;28;20018;-47
2022/07/01 11:19:20;;;;;;;15.27;13.00;;;16.50;99.90;;;;;;5017232;28;20025;-47
2022/07/01 11:21:52;;;;;;;15.00;13.13;;;16.50;99.90;;;;;;5017901;28;20032;-47
2022/07/01 11:24:19;;;;;;;16.67;14.65;;;16.50;99.90;;;;;;5014720;28;20057;-47
2022/07/01 11:26:44;;;;;;;16.33;13.57;;;16.50;99.90;;;;;;5020178;28;20026;-47
2022/07/01 11:29:11;;;;;;;16.27;13.55;;;16.50;99.90;;;;;;5021443;28;20064;-47
2022/07/01 11:31:36;;;;;;;20.23;15.18;;;16.50;99.90;;;;;;5016377;28;20037;-48
2022/07/01 11:34:02;;;;;;;15.45;13.80;;;16.50;99.90;;;;;;5017632;28;20066;-47
2022/07/01 11:39:25;;;;;;;16.88;14.30;;;16.50;99.90;;;;;;5024186;28;20029;-47
2022/07/01 11:41:59;;;;;;;13.52;11.57;;;16.50;99.90;;;;;;5033604;28;20021;-49
2022/07/01 11:44:42;;;;;;;14.82;13.25;;;16.50;99.90;;;;;;5020290;28;20395;-47
2022/07/01 11:47:11;;;;;;;15.55;12.95;;;16.60;99.90;;;;;;5028079;28;20104;-48
2022/07/01 11:49:47;;;;;;;13.77;12.05;;;16.60;99.90;;;;;;5030331;28;20053;-47
2022/07/01 11:52:14;;;;;;;14.30;11.55;;;16.60;99.90;;;;;;5026584;28;20382;-47
2022/07/01 11:54:41;;;;;;;15.02;13.27;;;16.70;99.90;;;;;;5029205;28;20049;-49
2022/07/01 11:57:09;;;;;;;14.95;11.65;;;16.80;99.90;;;;;;5022621;28;20128;-47
2022/07/01 11:59:38;;;;;;;14.88;12.40;;;16.90;99.90;;;;;;5025523;28;20081;-47
2022/07/01 12:02:04;;;;;;;14.30;11.68;;;16.90;99.90;;;;;;5021833;28;20028;-47
2022/07/01 12:04:30;;;;;;;14.10;11.30;;;17.00;99.90;;;;;;5031536;28;20018;-48
2022/07/01 12:06:57;;;;;;;14.75;10.93;;;17.10;99.90;;;;;;5029503;28;20033;-46
2022/07/01 12:09:23;;;;;;;10.68;9.57;;;17.20;99.90;;;;;;5020889;28;20033;-48
2022/07/01 12:11:51;;;;;;;12.43;10.90;;;17.50;99.90;;;;;;5020515;28;20104;-47
2022/07/01 12:14:31;;;;;;;11.27;10.07;;;17.70;99.90;;;;;;5020215;28;20437;-49
2022/07/01 12:16:59;;;;;;;11.60;10.40;;;17.80;99.90;;;;;;5031321;28;20032;-47
2022/07/01 12:19:39;;;;;;;13.55;9.77;;;18.00;99.90;;;;;;5021146;28;20476;-47
2022/07/01 12:22:12;;;;;;;11.48;10.38;;;18.10;99.90;;;;;;5052412;28;20227;-47
2022/07/01 12:24:38;;;;;;;11.15;9.95;;;18.20;99.90;;;;;;5023566;28;20032;-47
2022/07/01 12:27:06;;;;;;;11.10;9.07;;;18.30;99.90;;;;;;5034199;28;20136;-47
2022/07/01 12:29:40;;;;;;;12.02;9.63;;;18.40;99.90;;;;;;5013296;28;20049;-47
2022/07/01 12:32:07;;;;;;;10.35;9.07;;;18.50;99.90;;;;;;5013713;28;20030;-47
2022/07/01 12:34:46;;;;;;;13.23;9.43;;;18.60;99.90;;;;;;5020999;28;20026;-47
2022/07/01 12:37:25;;;;;;;12.40;10.35;;;18.70;99.90;;;;;;5021004;28;20021;-47
2022/07/01 12:39:56;;;;;;;10.25;9.05;;;18.70;99.90;;;;;;5024447;28;20032;-47
2022/07/01 12:42:27;;;;;;;14.35;10.88;;;18.80;99.90;;;;;;5033800;28;20063;-47
2022/07/01 12:44:58;;;;;;;16.73;9.55;;;18.90;99.90;;;;;;5020049;28;20037;-48
2022/07/01 12:47:34;;;;;;;9.65;8.32;;;19.00;99.90;;;;;;5017493;28;20018;-47
2022/07/01 12:50:10;;;;;;;11.55;9.27;;;19.00;99.90;;;;;;5024159;28;20071;-47
2022/07/01 12:52:36;;;;;;;8.27;7.22;;;19.30;99.90;;;;;;5016086;28;20026;-47